createdAt,value
2022-08-17T00:03:02.845Z,99.90
2022-08-17T00:06:17.588Z,99.90
2022-08-17T00:09:19.516Z,99.90
2022-08-17T00:12:42.744Z,99.90
2022-08-17T00:15:44.901Z,99.90
2022-08-17T00:19:02.456Z,99.90
2022-08-17T00:22:31.567Z,99.90
2022-08-17T00:25:30.423Z,99.90
2022-08-17T00:28:33.372Z,99.90
2022-08-17T00:31:36.122Z,99.90
2022-08-17T00:34:38.416Z,99.90
2022-08-17T00:37:40.340Z,99.90
2022-08-17T00:40:45.731Z,99.90
2022-08-17T00:43:53.165Z,99.90
2022-08-17T00:46:55.035Z,99.90
2022-08-17T00:49:56.656Z,99.90
2022-08-17T00:52:58.890Z,99.90
2022-08-17T00:56:04.485Z,99.90
2022-08-17T00:59:08.902Z,99.90
2022-08-17T01:02:14.048Z,99.90
2022-08-17T01:05:20.961Z,99.90
2022-08-17T01:08:27.195Z,99.90
2022-08-17T01:11:30.477Z,99.90
2022-08-17T01:14:32.616Z,99.90
2022-08-17T01:17:34.534Z,99.90
2022-08-17T01:20:48.534Z,99.90
2022-08-17T01:23:50.422Z,99.90
2022-08-17T01:26:52.072Z,99.90
2022-08-17T01:29:58.559Z,99.90
2022-08-17T01:33:00.215Z,99.90
2022-08-17T01:36:03.531Z,99.90
2022-08-17T01:39:09.420Z,99.90
2022-08-17T01:42:30.676Z,99.90
2022-08-17T01:45:38.882Z,99.90
2022-08-17T01:48:40.545Z,99.90
2022-08-17T01:51:42.224Z,99.90
2022-08-17T01:54:47.381Z,99.90
2022-08-17T01:57:49.000Z,99.90
2022-08-17T02:00:59.958Z,99.90
2022-08-17T02:04:05.167Z,99.90
2022-08-17T02:07:06.806Z,99.90
2022-08-17T02:10:19.781Z,99.90
2022-08-17T02:13:22.451Z,99.90
2022-08-17T02:16:24.101Z,99.90
2022-08-17T02:19:25.808Z,99.90
2022-08-17T02:22:28.602Z,99.90
2022-08-17T02:25:32.642Z,99.90
2022-08-17T02:28:34.793Z,99.90
2022-08-17T02:31:36.400Z,99.90
2022-08-17T02:34:38.019Z,99.90
2022-08-17T02:37:42.062Z,99.90
2022-08-17T02:40:43.783Z,99.90
2022-08-17T02:43:47.090Z,99.90
2022-08-17T02:46:48.692Z,99.90
2022-08-17T02:49:55.513Z,99.90
2022-08-17T02:53:01.867Z,99.90
2022-08-17T02:56:04.584Z,99.90
2022-08-17T02:59:06.210Z,99.90
2022-08-17T03:02:10.861Z,99.90
2022-08-17T03:05:15.854Z,99.90
2022-08-17T03:08:18.370Z,99.90
2022-08-17T03:11:20.010Z,99.90
2022-08-17T03:14:21.633Z,99.90
2022-08-17T03:17:27.913Z,99.90
2022-08-17T03:20:31.644Z,99.90
2022-08-17T03:23:33.710Z,99.90
2022-08-17T03:26:35.346Z,99.90
2022-08-17T03:29:36.951Z,99.90
2022-08-17T03:32:41.247Z,99.90
2022-08-17T03:35:43.076Z,99.90
2022-08-17T03:38:45.140Z,99.90
2022-08-17T03:41:47.186Z,99.90
2022-08-17T03:44:50.004Z,99.90
2022-08-17T03:48:10.354Z,99.90
2022-08-17T03:51:37.443Z,99.90
2022-08-17T03:54:58.325Z,99.90
2022-08-17T03:58:00.261Z,99.90
2022-08-17T04:01:04.978Z,99.90
2022-08-17T04:04:07.008Z,99.90
2022-08-17T04:07:08.961Z,99.90
2022-08-17T04:10:10.618Z,99.90
2022-08-17T04:13:12.748Z,99.90
2022-08-17T04:16:14.367Z,99.90
2022-08-17T04:19:16.012Z,99.90
2022-08-17T04:22:32.024Z,99.90
2022-08-17T04:25:41.611Z,99.90
2022-08-17T04:28:44.064Z,99.90
2022-08-17T04:31:46.301Z,99.90
2022-08-17T04:34:47.920Z,99.90
2022-08-17T04:37:50.568Z,99.90
2022-08-17T04:41:11.897Z,99.90
2022-08-17T04:44:13.594Z,99.90
2022-08-17T04:47:29.975Z,99.90
2022-08-17T04:50:32.996Z,99.90
2022-08-17T04:53:35.051Z,99.90
2022-08-17T04:56:38.383Z,99.90
2022-08-17T04:59:40.007Z,99.90
2022-08-17T05:02:50.673Z,99.90
2022-08-17T05:05:53.644Z,99.90
2022-08-17T05:08:56.384Z,99.90
2022-08-17T05:12:02.168Z,99.90
2022-08-17T05:15:04.291Z,99.90
2022-08-17T05:18:07.462Z,99.90
2022-08-17T05:21:09.478Z,99.90
2022-08-17T05:24:38.238Z,99.90
2022-08-17T05:27:35.323Z,99.90
2022-08-17T05:30:39.323Z,99.90
2022-08-17T05:33:45.203Z,99.90
2022-08-17T05:36:48.018Z,99.90
2022-08-17T05:39:49.749Z,99.90
2022-08-17T05:42:52.644Z,99.90
2022-08-17T05:46:06.627Z,99.90
2022-08-17T05:49:09.438Z,99.90
2022-08-17T05:52:27.026Z,99.90
2022-08-17T05:55:53.102Z,99.90
2022-08-17T05:59:05.343Z,99.90
2022-08-17T06:02:27.775Z,99.90
2022-08-17T06:05:59.961Z,99.90
2022-08-17T06:09:15.225Z,99.90
2022-08-17T06:12:55.789Z,99.90
2022-08-17T06:16:33.740Z,99.90
2022-08-17T06:19:39.462Z,99.90
2022-08-17T06:22:55.650Z,99.90
2022-08-17T06:26:03.876Z,99.90
2022-08-17T06:29:37.166Z,99.90
2022-08-17T06:32:44.464Z,99.90
2022-08-17T06:36:29.197Z,99.90
2022-08-17T06:40:15.333Z,99.90
2022-08-17T06:43:32.580Z,99.90
2022-08-17T06:46:41.403Z,99.90
2022-08-17T06:50:01.021Z,99.90
2022-08-17T06:53:29.361Z,99.90
2022-08-17T06:57:10.695Z,99.90
2022-08-17T07:00:23.806Z,99.90
2022-08-17T07:03:37.657Z,99.90
2022-08-17T07:06:42.427Z,99.90
2022-08-17T07:09:44.326Z,99.90
2022-08-17T07:12:47.079Z,99.90
2022-08-17T07:15:56.950Z,99.90
2022-08-17T07:18:59.532Z,99.90
2022-08-17T07:22:50.361Z,99.90
2022-08-17T07:26:05.527Z,99.90
2022-08-17T07:29:10.066Z,99.90
2022-08-17T07:32:17.951Z,99.90
2022-08-17T07:35:22.097Z,99.90
2022-08-17T07:38:29.709Z,99.90
2022-08-17T07:41:53.207Z,99.90
2022-08-17T07:45:22.876Z,99.90
2022-08-17T07:48:26.938Z,99.90
2022-08-17T07:51:36.388Z,99.90
2022-08-17T07:54:40.930Z,99.90
2022-08-17T07:57:42.583Z,99.90
2022-08-17T08:00:45.257Z,99.90
2022-08-17T08:03:52.417Z,99.90
2022-08-17T08:06:57.648Z,99.90
2022-08-17T08:10:01.552Z,99.90
2022-08-17T08:13:07.257Z,99.90
2022-08-17T08:16:24.631Z,99.90
2022-08-17T08:19:29.184Z,99.90
2022-08-17T08:22:43.431Z,99.90
2022-08-17T08:26:03.617Z,99.90
2022-08-17T08:29:20.326Z,99.90
2022-08-17T08:32:53.956Z,99.90
2022-08-17T08:37:12.562Z,99.90
2022-08-17T08:40:00.844Z,99.90
2022-08-17T08:43:22.002Z,99.90
2022-08-17T08:46:42.364Z,99.90
2022-08-17T08:50:08.469Z,99.90
2022-08-17T08:53:44.053Z,99.90
2022-08-17T09:00:26.564Z,99.90
2022-08-17T09:03:49.737Z,99.90
2022-08-17T09:07:14.377Z,99.90
2022-08-17T09:10:51.702Z,99.90
2022-08-17T09:14:21.472Z,99.90
2022-08-17T09:17:45.496Z,99.90
2022-08-17T09:20:53.878Z,99.90
2022-08-17T09:24:25.015Z,99.90
2022-08-17T09:28:00.568Z,99.90
2022-08-17T09:31:08.776Z,99.90
2022-08-17T09:34:18.212Z,99.90
2022-08-17T09:37:28.150Z,99.90
2022-08-17T09:40:52.683Z,99.90
2022-08-17T09:44:22.653Z,99.90
2022-08-17T09:47:33.401Z,99.90
2022-08-17T09:51:04.358Z,99.90
2022-08-17T09:54:38.539Z,99.90
2022-08-17T09:57:53.399Z,99.90
2022-08-17T10:01:08.138Z,99.90
2022-08-17T10:04:29.326Z,99.90
2022-08-17T10:07:40.881Z,99.90
2022-08-17T10:11:15.371Z,99.90
2022-08-17T10:14:37.990Z,99.90
2022-08-17T10:18:22.226Z,99.90
2022-08-17T10:21:44.270Z,99.90
2022-08-17T10:25:22.386Z,99.90
2022-08-17T10:28:32.022Z,99.90
2022-08-17T10:31:40.862Z,99.90
2022-08-17T10:35:03.012Z,99.90
2022-08-17T10:38:36.429Z,99.90
2022-08-17T10:41:42.933Z,99.90
2022-08-17T10:44:51.946Z,99.90
2022-08-17T10:48:06.349Z,99.90
2022-08-17T10:51:13.039Z,99.90
2022-08-17T10:54:46.219Z,99.90
2022-08-17T10:57:50.141Z,99.90
2022-08-17T11:00:53.209Z,99.90
2022-08-17T11:03:58.251Z,99.90
2022-08-17T11:07:27.906Z,99.90
2022-08-17T11:11:05.866Z,99.90
2022-08-17T11:14:30.912Z,99.90
2022-08-17T11:18:11.341Z,99.90
2022-08-17T11:21:42.262Z,99.90
2022-08-17T11:24:51.307Z,99.90
2022-08-17T11:28:37.359Z,99.90
2022-08-17T11:31:46.473Z,99.90
2022-08-17T11:34:50.475Z,99.90
2022-08-17T11:38:26.321Z,99.90
2022-08-17T11:41:33.100Z,99.90
2022-08-17T11:44:43.140Z,99.90
2022-08-17T11:48:27.190Z,99.90
2022-08-17T11:52:01.531Z,99.90
2022-08-17T11:55:31.813Z,99.90
2022-08-17T11:58:41.821Z,99.90
2022-08-17T12:01:55.657Z,99.90
2022-08-17T12:05:19.308Z,99.90
2022-08-17T12:08:22.341Z,99.90
2022-08-17T12:11:56.277Z,99.90
2022-08-17T12:15:10.551Z,99.90
2022-08-17T12:18:24.521Z,99.90
2022-08-17T12:21:31.698Z,99.90
2022-08-17T12:24:39.573Z,99.90
2022-08-17T12:28:05.008Z,99.90
2022-08-17T12:31:25.901Z,99.90
2022-08-17T12:34:39.172Z,99.90
2022-08-17T12:37:46.996Z,99.90
2022-08-17T12:41:00.077Z,99.90
2022-08-17T12:44:09.408Z,99.90
2022-08-17T12:47:22.439Z,99.90
2022-08-17T12:50:29.192Z,99.90
2022-08-17T12:53:35.149Z,99.90
2022-08-17T12:56:36.767Z,99.90
2022-08-17T12:59:43.514Z,99.90
2022-08-17T13:02:54.488Z,99.90
2022-08-17T13:06:01.479Z,99.90
2022-08-17T13:09:40.075Z,99.90
2022-08-17T13:12:42.461Z,99.90
2022-08-17T13:16:04.230Z,99.90
2022-08-17T13:19:20.151Z,99.90
2022-08-17T13:22:43.262Z,99.90
2022-08-17T13:26:04.915Z,99.90
2022-08-17T13:29:16.680Z,99.90
2022-08-17T13:32:24.223Z,99.90
2022-08-17T13:35:50.512Z,99.90
2022-08-17T13:39:05.160Z,99.90
2022-08-17T13:42:51.595Z,99.90
2022-08-17T13:46:09.166Z,99.90
2022-08-17T13:49:11.986Z,99.90
2022-08-17T13:52:32.080Z,99.90
2022-08-17T13:55:34.812Z,99.90
2022-08-17T13:58:39.834Z,99.90
2022-08-17T14:01:54.113Z,99.90
2022-08-17T14:04:56.771Z,99.90
2022-08-17T14:08:01.866Z,99.80
2022-08-17T14:11:09.071Z,99.90
2022-08-17T14:14:12.505Z,99.80
2022-08-17T14:17:14.769Z,99.00
2022-08-17T14:20:19.839Z,98.60
2022-08-17T14:23:21.475Z,97.60
2022-08-17T14:26:23.697Z,97.60
2022-08-17T14:29:27.888Z,96.70
2022-08-17T14:32:32.909Z,96.90
2022-08-17T14:35:35.200Z,96.50
2022-08-17T14:38:37.855Z,96.80
2022-08-17T14:41:40.439Z,96.70
2022-08-17T14:44:44.798Z,97.20
2022-08-17T14:47:46.937Z,96.80
2022-08-17T14:50:48.991Z,95.80
2022-08-17T14:53:50.709Z,95.60
2022-08-17T14:57:02.881Z,94.80
2022-08-17T15:00:16.599Z,95.10
2022-08-17T15:03:18.985Z,94.80
2022-08-17T15:06:22.291Z,94.20
2022-08-17T15:09:23.908Z,94.40
2022-08-17T15:12:29.936Z,93.70
2022-08-17T15:15:34.084Z,93.60
2022-08-17T15:18:36.520Z,93.70
2022-08-17T15:21:38.115Z,93.40
2022-08-17T15:24:39.723Z,93.00
2022-08-17T15:27:41.954Z,92.10
2022-08-17T15:30:44.882Z,92.40
2022-08-17T15:33:46.586Z,91.80
2022-08-17T15:36:49.660Z,90.30
2022-08-17T15:39:51.618Z,90.20
2022-08-17T15:42:53.523Z,88.90
2022-08-17T15:46:10.723Z,85.80
2022-08-17T15:49:12.540Z,86.40
2022-08-17T15:52:20.304Z,85.90
2022-08-17T15:55:24.258Z,87.60
2022-08-17T15:58:29.932Z,86.30
2022-08-17T16:03:14.688Z,85.70
2022-08-17T16:05:10.804Z,85.90
2022-08-17T16:08:20.059Z,85.80
2022-08-17T16:11:22.690Z,85.40
2022-08-17T16:14:30.345Z,84.20
2022-08-17T16:17:39.602Z,84.70
2022-08-17T16:20:42.585Z,83.80
2022-08-17T16:23:44.163Z,82.70
2022-08-17T16:26:45.823Z,83.10
2022-08-17T16:29:49.682Z,82.00
2022-08-17T16:32:59.612Z,83.20
2022-08-17T16:36:01.337Z,83.40
2022-08-17T16:39:03.177Z,82.70
2022-08-17T16:42:23.371Z,83.30
2022-08-17T16:45:28.146Z,83.60
2022-08-17T16:48:30.107Z,84.30
2022-08-17T16:51:32.089Z,83.40
2022-08-17T16:54:35.120Z,84.10
2022-08-17T16:57:47.558Z,84.10
2022-08-17T17:00:52.182Z,84.00
2022-08-17T17:03:58.398Z,83.10
2022-08-17T17:07:14.569Z,82.90
2022-08-17T17:10:23.860Z,83.60
2022-08-17T17:13:32.155Z,82.60
2022-08-17T17:16:47.557Z,83.10
2022-08-17T17:20:02.811Z,83.40
2022-08-17T17:23:33.816Z,84.30
2022-08-17T17:27:13.302Z,83.90
2022-08-17T17:30:20.726Z,84.80
2022-08-17T17:33:32.853Z,85.30
2022-08-17T17:36:46.054Z,85.50
2022-08-17T17:39:55.053Z,85.50
2022-08-17T17:43:20.355Z,85.70
2022-08-17T17:46:33.724Z,86.50
2022-08-17T17:49:43.886Z,86.80
2022-08-17T17:52:56.313Z,87.20
2022-08-17T17:56:40.427Z,87.90
2022-08-17T17:59:58.901Z,87.70
2022-08-17T18:03:11.348Z,88.90
2022-08-17T18:06:39.918Z,89.10
2022-08-17T18:10:01.035Z,89.20
2022-08-17T18:13:09.060Z,90.00
2022-08-17T18:16:13.454Z,90.40
2022-08-17T18:19:22.420Z,90.50
2022-08-17T18:22:24.823Z,90.60
2022-08-17T18:25:44.682Z,90.90
2022-08-17T18:28:50.715Z,91.10
2022-08-17T18:32:17.801Z,91.40
2022-08-17T18:35:19.356Z,91.60
2022-08-17T18:38:29.194Z,91.90
2022-08-17T18:41:40.670Z,92.30
2022-08-17T18:44:44.040Z,92.70
2022-08-17T18:47:55.373Z,92.80
2022-08-17T18:51:00.930Z,93.20
2022-08-17T18:54:07.901Z,93.70
2022-08-17T18:57:12.191Z,94.20
2022-08-17T19:00:41.023Z,95.00
2022-08-17T19:03:43.308Z,95.70
2022-08-17T19:06:44.987Z,96.40
2022-08-17T19:09:51.707Z,98.40
2022-08-17T19:13:12.765Z,99.90
2022-08-17T19:16:40.599Z,99.90
2022-08-17T19:20:05.027Z,99.90
2022-08-17T19:23:55.436Z,99.90
2022-08-17T19:27:17.948Z,99.90
2022-08-17T19:30:20.248Z,99.90
2022-08-17T19:33:22.216Z,99.90
2022-08-17T19:36:40.905Z,99.90
2022-08-17T19:40:00.947Z,99.90
2022-08-17T19:43:23.201Z,99.90
2022-08-17T19:46:35.867Z,99.90
2022-08-17T19:50:00.923Z,99.90
2022-08-17T19:53:20.675Z,99.90
2022-08-17T19:56:34.947Z,99.90
2022-08-17T19:59:58.562Z,99.90
2022-08-17T20:03:16.545Z,99.90
2022-08-17T20:06:20.955Z,99.90
2022-08-17T20:09:43.460Z,99.90
2022-08-17T20:12:47.436Z,99.90
2022-08-17T20:15:49.047Z,99.90
2022-08-17T20:19:05.299Z,99.90
2022-08-17T20:22:15.412Z,99.90
2022-08-17T20:25:30.053Z,99.90
2022-08-17T20:28:35.755Z,99.90
2022-08-17T20:31:49.785Z,99.90
2022-08-17T20:35:07.908Z,99.90
2022-08-17T20:38:31.850Z,99.90
2022-08-17T20:42:02.941Z,99.90
2022-08-17T20:45:26.256Z,99.90
2022-08-17T20:48:38.499Z,99.90
2022-08-17T20:52:01.467Z,99.90
2022-08-17T20:55:04.904Z,99.90
2022-08-17T20:58:15.605Z,99.90
2022-08-17T21:01:34.447Z,99.90
2022-08-17T21:04:49.875Z,99.90
2022-08-17T21:07:57.959Z,99.90
2022-08-17T21:11:20.806Z,99.90
2022-08-17T21:14:45.357Z,99.90
2022-08-17T21:17:59.112Z,99.90
2022-08-17T21:21:20.944Z,99.90
2022-08-17T21:24:55.047Z,99.90
2022-08-17T21:28:29.989Z,99.90
2022-08-17T21:31:43.063Z,99.90
2022-08-17T21:35:14.665Z,99.90
2022-08-17T21:38:21.150Z,99.90
2022-08-17T21:41:33.705Z,99.90
2022-08-17T21:44:37.681Z,99.90
2022-08-17T21:47:43.388Z,99.90
2022-08-17T21:50:57.629Z,99.90
2022-08-17T21:54:04.189Z,99.90
2022-08-17T21:57:16.070Z,99.90
2022-08-17T22:00:27.365Z,99.90
2022-08-17T22:03:31.594Z,99.90
2022-08-17T22:06:38.523Z,99.90
2022-08-17T22:09:49.009Z,99.90
2022-08-17T22:13:17.262Z,99.90
2022-08-17T22:16:28.618Z,99.90
2022-08-17T22:19:33.236Z,99.90
2022-08-17T22:23:18.229Z,99.90
2022-08-17T22:26:22.441Z,99.90
2022-08-17T22:29:57.088Z,99.90
2022-08-17T22:33:01.878Z,99.90
2022-08-17T22:59:55.750Z,99.90
2022-08-17T23:03:09.148Z,99.90
2022-08-17T23:06:11.355Z,99.90
2022-08-17T23:09:13.006Z,99.90
2022-08-17T23:12:18.325Z,99.90
2022-08-17T23:15:20.302Z,99.90
2022-08-17T23:18:23.383Z,99.90
2022-08-17T23:21:29.492Z,99.90
2022-08-17T23:24:35.532Z,99.90
2022-08-17T23:27:37.214Z,99.90
2022-08-17T23:30:42.438Z,99.90
2022-08-17T23:33:45.564Z,99.90
2022-08-17T23:36:52.887Z,99.90
2022-08-17T23:39:54.624Z,99.90
2022-08-17T23:42:56.450Z,99.90
2022-08-17T23:46:00.742Z,99.90
2022-08-17T23:49:03.161Z,99.90
2022-08-17T23:52:09.848Z,99.90
2022-08-17T23:55:13.322Z,99.90
2022-08-17T23:58:14.910Z,99.90
